createdAt,value
2022-10-13T00:00:15.447Z,11.22
2022-10-13T00:02:43.073Z,11.20
2022-10-13T00:05:11.047Z,11.17
2022-10-13T00:07:38.712Z,11.16
2022-10-13T00:10:07.013Z,11.17
2022-10-13T00:12:37.413Z,11.18
2022-10-13T00:15:06.657Z,11.20
2022-10-13T00:17:36.335Z,11.22
2022-10-13T00:20:04.097Z,11.24
2022-10-13T00:22:32.132Z,11.27
2022-10-13T00:24:59.822Z,11.28
2022-10-13T00:27:27.591Z,11.31
2022-10-13T00:29:56.864Z,11.33
2022-10-13T00:32:24.567Z,11.35
2022-10-13T00:34:52.322Z,11.33
2022-10-13T00:37:19.988Z,11.36
2022-10-13T00:39:47.692Z,11.38
2022-10-13T00:42:15.485Z,11.41
2022-10-13T00:45:21.470Z,11.41
2022-10-13T00:47:52.551Z,11.42
2022-10-13T00:50:23.695Z,11.45
2022-10-13T00:52:54.054Z,11.46
2022-10-13T00:55:25.238Z,11.47
2022-10-13T00:57:55.093Z,11.49
2022-10-13T01:00:25.286Z,11.48
2022-10-13T01:02:53.304Z,11.48
2022-10-13T01:05:22.733Z,11.48
2022-10-13T01:07:51.999Z,11.48
2022-10-13T01:10:33.437Z,11.48
2022-10-13T01:13:07.952Z,11.47
2022-10-13T01:15:43.359Z,11.47
2022-10-13T01:18:20.941Z,11.49
2022-10-13T01:21:21.039Z,11.49
2022-10-13T01:24:19.918Z,11.50
2022-10-13T01:27:05.744Z,11.50
2022-10-13T01:30:03.094Z,11.50
2022-10-13T01:32:37.193Z,11.52
2022-10-13T01:35:10.653Z,11.53
2022-10-13T01:37:47.606Z,11.53
2022-10-13T01:40:25.635Z,11.54
2022-10-13T01:43:00.183Z,11.55
2022-10-13T01:45:33.196Z,11.56
2022-10-13T01:48:03.625Z,11.58
2022-10-13T01:50:33.414Z,11.60
2022-10-13T01:53:03.831Z,11.62
2022-10-13T01:55:32.030Z,11.66
2022-10-13T01:57:59.689Z,11.68
2022-10-13T02:00:32.070Z,11.69
2022-10-13T02:03:12.599Z,11.70
2022-10-13T02:05:49.246Z,11.69
2022-10-13T02:08:25.728Z,11.71
2022-10-13T02:11:02.625Z,11.70
2022-10-13T02:13:33.558Z,11.70
2022-10-13T02:16:03.262Z,11.72
2022-10-13T02:18:34.202Z,11.71
2022-10-13T02:21:03.523Z,11.72
2022-10-13T02:23:31.979Z,11.76
2022-10-13T02:26:01.285Z,11.77
2022-10-13T02:28:29.666Z,11.76
2022-10-13T02:30:57.997Z,11.75
2022-10-13T02:33:27.054Z,11.75
2022-10-13T02:35:54.714Z,11.75
2022-10-13T02:38:22.779Z,11.74
2022-10-13T02:40:50.412Z,11.75
2022-10-13T02:43:18.088Z,11.78
2022-10-13T02:45:45.770Z,11.79
2022-10-13T02:48:13.509Z,11.80
2022-10-13T02:50:42.571Z,11.82
2022-10-13T02:53:10.231Z,11.86
2022-10-13T02:55:37.890Z,11.89
2022-10-13T02:58:05.703Z,11.89
2022-10-13T03:00:33.502Z,11.90
2022-10-13T03:03:01.351Z,11.90
2022-10-13T03:05:29.000Z,11.91
2022-10-13T03:07:58.176Z,11.92
2022-10-13T03:10:26.080Z,11.94
2022-10-13T03:12:55.362Z,11.96
2022-10-13T03:15:23.611Z,11.98
2022-10-13T03:17:51.545Z,11.97
2022-10-13T03:20:19.249Z,11.99
2022-10-13T03:22:49.702Z,12.00
2022-10-13T03:25:19.224Z,12.00
2022-10-13T03:27:46.839Z,11.99
2022-10-13T03:30:14.769Z,12.00
2022-10-13T03:32:42.441Z,12.01
2022-10-13T03:35:10.299Z,12.01
2022-10-13T03:37:37.957Z,12.00
2022-10-13T03:40:06.757Z,12.01
2022-10-13T03:42:38.247Z,12.02
2022-10-13T03:45:07.099Z,12.01
2022-10-13T03:47:36.124Z,12.01
2022-10-13T03:50:05.418Z,12.01
2022-10-13T03:52:33.114Z,12.03
2022-10-13T03:55:00.829Z,12.05
2022-10-13T03:57:28.439Z,12.07
2022-10-13T03:59:58.060Z,12.06
2022-10-13T04:02:25.782Z,12.05
2022-10-13T04:04:53.701Z,12.05
2022-10-13T04:07:21.402Z,12.05
2022-10-13T04:09:49.117Z,12.07
2022-10-13T04:12:20.572Z,12.07
2022-10-13T04:14:48.727Z,12.07
2022-10-13T04:17:17.766Z,12.07
2022-10-13T04:19:45.690Z,12.08
2022-10-13T04:22:13.349Z,12.05
2022-10-13T04:24:41.071Z,12.06
2022-10-13T04:27:08.738Z,12.06
2022-10-13T04:29:36.509Z,12.07
2022-10-13T04:32:04.336Z,12.07
2022-10-13T04:34:33.380Z,12.06
2022-10-13T04:37:01.079Z,12.05
2022-10-13T04:39:28.844Z,12.04
2022-10-13T04:41:56.815Z,12.04
2022-10-13T04:44:24.491Z,12.02
2022-10-13T04:46:52.145Z,12.04
2022-10-13T04:49:19.842Z,12.03
2022-10-13T04:51:48.894Z,12.02
2022-10-13T04:54:16.679Z,12.01
2022-10-13T04:56:45.654Z,12.03
2022-10-13T04:59:13.419Z,12.05
2022-10-13T05:01:41.107Z,12.05
2022-10-13T05:04:09.382Z,12.05
2022-10-13T05:06:58.875Z,12.05
2022-10-13T05:09:29.048Z,12.05
2022-10-13T05:11:57.407Z,12.06
2022-10-13T05:14:25.224Z,12.05
2022-10-13T05:16:52.914Z,12.05
2022-10-13T05:19:21.310Z,12.06
2022-10-13T05:21:49.004Z,12.06
2022-10-13T05:24:16.672Z,12.07
2022-10-13T05:26:45.645Z,12.09
2022-10-13T05:29:13.251Z,12.08
2022-10-13T05:31:42.174Z,12.09
2022-10-13T05:34:10.369Z,12.08
2022-10-13T05:36:38.019Z,12.09
2022-10-13T05:39:08.312Z,12.10
2022-10-13T05:41:35.967Z,12.10
2022-10-13T05:44:09.024Z,12.07
2022-10-13T05:46:37.325Z,12.07
2022-10-13T05:49:05.187Z,12.07
2022-10-13T05:51:35.676Z,12.09
2022-10-13T05:54:07.867Z,12.09
2022-10-13T05:56:40.917Z,12.06
2022-10-13T05:59:14.360Z,12.05
2022-10-13T06:01:43.115Z,12.03
2022-10-13T06:04:16.012Z,12.01
2022-10-13T06:06:43.698Z,12.01
2022-10-13T06:09:11.695Z,12.00
2022-10-13T06:11:39.667Z,12.00
2022-10-13T06:14:07.526Z,12.02
2022-10-13T06:16:37.452Z,12.02
2022-10-13T06:19:05.475Z,12.04
2022-10-13T06:21:35.042Z,12.04
2022-10-13T06:24:03.064Z,12.06
2022-10-13T06:26:30.931Z,12.06
2022-10-13T06:28:59.930Z,12.07
2022-10-13T06:31:28.078Z,12.09
2022-10-13T06:33:57.078Z,12.12
2022-10-13T06:36:24.719Z,12.13
2022-10-13T06:38:52.555Z,12.13
2022-10-13T06:41:20.351Z,12.16
2022-10-13T06:43:48.989Z,12.17
2022-10-13T06:46:16.696Z,12.19
2022-10-13T06:48:44.397Z,12.22
2022-10-13T06:51:13.738Z,12.22
2022-10-13T06:53:41.397Z,12.23
2022-10-13T06:56:10.364Z,12.25
2022-10-13T06:58:38.688Z,12.28
2022-10-13T07:01:07.159Z,12.32
2022-10-13T07:03:34.886Z,12.36
2022-10-13T07:06:03.415Z,12.43
2022-10-13T07:08:33.047Z,12.52
2022-10-13T07:11:07.523Z,12.58
2022-10-13T07:13:37.671Z,12.69
2022-10-13T07:16:08.435Z,12.81
2022-10-13T07:18:36.567Z,12.91
2022-10-13T07:21:04.867Z,13.01
2022-10-13T07:23:34.383Z,13.13
2022-10-13T07:26:02.159Z,13.21
2022-10-13T07:28:29.972Z,13.26
2022-10-13T07:31:00.264Z,13.28
2022-10-13T07:33:28.230Z,13.28
2022-10-13T07:35:56.069Z,13.30
2022-10-13T07:38:23.895Z,13.27
2022-10-13T07:40:52.902Z,13.25
2022-10-13T07:43:20.542Z,13.25
2022-10-13T07:45:48.563Z,13.29
2022-10-13T07:48:16.620Z,13.33
2022-10-13T07:50:44.300Z,13.41
2022-10-13T07:53:11.991Z,13.48
2022-10-13T07:55:39.699Z,13.60
2022-10-13T07:58:10.761Z,13.70
2022-10-13T08:00:38.424Z,13.76
2022-10-13T08:03:06.125Z,13.82
2022-10-13T08:05:37.841Z,13.83
2022-10-13T08:08:05.612Z,13.87
2022-10-13T08:10:33.291Z,13.89
2022-10-13T08:13:00.949Z,13.89
2022-10-13T08:15:30.040Z,13.88
2022-10-13T08:17:57.907Z,13.85
2022-10-13T08:20:40.967Z,13.83
2022-10-13T08:23:11.812Z,13.83
2022-10-13T08:25:43.676Z,13.84
2022-10-13T08:28:18.696Z,13.86
2022-10-13T08:30:48.378Z,13.89
2022-10-13T08:33:16.189Z,13.93
2022-10-13T08:35:43.900Z,13.97
2022-10-13T08:38:11.658Z,14.04
2022-10-13T08:40:40.201Z,14.10
2022-10-13T08:43:08.233Z,14.16
2022-10-13T08:45:41.392Z,14.21
2022-10-13T08:48:16.896Z,14.23
2022-10-13T08:50:46.866Z,14.25
2022-10-13T08:53:19.176Z,14.27
2022-10-13T08:55:49.678Z,14.31
2022-10-13T08:58:20.790Z,14.37
2022-10-13T09:00:48.449Z,14.45
2022-10-13T09:03:25.116Z,14.57
2022-10-13T09:06:05.007Z,14.68
2022-10-13T09:08:38.893Z,14.81
2022-10-13T09:11:06.937Z,14.96
2022-10-13T09:13:34.591Z,15.08
2022-10-13T09:16:02.279Z,15.22
2022-10-13T09:18:32.835Z,15.35
2022-10-13T09:21:11.858Z,15.46
2022-10-13T09:23:41.854Z,15.53
2022-10-13T09:26:14.448Z,15.61
2022-10-13T09:28:42.229Z,15.67
2022-10-13T09:31:17.253Z,15.72
2022-10-13T09:33:47.606Z,15.79
2022-10-13T09:36:16.539Z,15.85
2022-10-13T09:39:05.028Z,15.91
2022-10-13T09:41:34.114Z,15.95
2022-10-13T09:44:11.741Z,16.02
2022-10-13T09:46:46.911Z,16.05
2022-10-13T09:49:30.947Z,16.12
2022-10-13T09:52:03.455Z,16.13
2022-10-13T09:54:38.435Z,16.18
2022-10-13T09:57:23.209Z,16.24
2022-10-13T09:59:53.012Z,16.24
2022-10-13T10:02:33.067Z,16.25
2022-10-13T10:05:07.768Z,16.29
2022-10-13T10:07:35.524Z,16.33
2022-10-13T10:10:08.842Z,16.40
2022-10-13T10:12:40.949Z,16.45
2022-10-13T10:15:19.941Z,16.46
2022-10-13T10:17:53.717Z,16.52
2022-10-13T10:20:41.465Z,16.60
2022-10-13T10:23:15.084Z,16.66
2022-10-13T10:25:48.103Z,16.69
2022-10-13T10:28:36.055Z,16.74
2022-10-13T10:31:14.560Z,16.80
2022-10-13T10:33:51.576Z,16.84
2022-10-13T10:36:24.987Z,16.89
2022-10-13T10:39:00.216Z,16.97
2022-10-13T10:41:41.904Z,17.00
2022-10-13T10:44:12.109Z,17.07
2022-10-13T10:46:43.425Z,17.14
2022-10-13T10:49:16.407Z,17.21
2022-10-13T10:51:48.551Z,17.33
2022-10-13T10:54:27.626Z,17.41
2022-10-13T10:56:59.426Z,17.47
2022-10-13T10:59:40.096Z,17.52
2022-10-13T11:02:29.288Z,17.59
2022-10-13T11:05:03.584Z,17.67
2022-10-13T11:07:58.757Z,17.76
2022-10-13T11:10:30.441Z,17.81
2022-10-13T11:13:22.282Z,17.90
2022-10-13T11:15:50.709Z,17.98
2022-10-13T11:19:05.518Z,18.10
2022-10-13T11:22:13.355Z,18.18
2022-10-13T11:25:02.644Z,18.13
2022-10-13T11:27:42.582Z,18.12
2022-10-13T11:30:41.127Z,18.10
2022-10-13T11:33:42.074Z,18.08
2022-10-13T11:36:36.994Z,18.02
2022-10-13T11:39:21.782Z,17.95
2022-10-13T11:42:13.911Z,17.88
2022-10-13T11:44:54.124Z,17.75
2022-10-13T11:47:42.398Z,17.65
2022-10-13T11:50:21.705Z,17.59
2022-10-13T11:53:05.358Z,17.50
2022-10-13T11:55:44.258Z,17.40
2022-10-13T11:58:17.135Z,17.32
2022-10-13T12:00:56.286Z,17.28
2022-10-13T12:03:27.180Z,17.24
2022-10-13T12:05:58.107Z,17.16
2022-10-13T12:08:28.167Z,17.01
2022-10-13T12:10:58.296Z,16.94
2022-10-13T12:13:32.100Z,16.89
2022-10-13T12:16:03.217Z,16.82
2022-10-13T12:18:34.163Z,16.83
2022-10-13T12:21:04.561Z,16.80
2022-10-13T12:23:33.658Z,16.83
2022-10-13T12:26:01.760Z,16.85
2022-10-13T12:28:44.102Z,16.86
2022-10-13T12:31:19.750Z,16.90
2022-10-13T12:33:53.797Z,16.91
2022-10-13T12:36:26.362Z,16.95
2022-10-13T12:38:57.756Z,17.00
2022-10-13T12:41:28.284Z,17.05
2022-10-13T12:44:01.074Z,17.08
2022-10-13T12:46:41.759Z,17.08
2022-10-13T12:49:15.756Z,17.12
2022-10-13T12:51:44.733Z,17.19
2022-10-13T12:54:22.199Z,17.22
2022-10-13T12:56:53.811Z,17.28
2022-10-13T12:59:27.108Z,17.28
2022-10-13T13:01:58.057Z,17.24
2022-10-13T13:04:32.900Z,17.21
2022-10-13T13:07:04.865Z,17.19
2022-10-13T13:09:34.231Z,17.16
2022-10-13T13:12:22.650Z,17.14
2022-10-13T13:14:54.949Z,17.12
2022-10-13T13:17:56.689Z,17.11
2022-10-13T13:20:21.384Z,17.09
2022-10-13T13:22:50.698Z,17.06
2022-10-13T13:25:18.387Z,17.02
2022-10-13T13:27:46.080Z,16.97
2022-10-13T13:30:18.066Z,16.95
2022-10-13T13:32:45.719Z,16.92
2022-10-13T13:35:13.578Z,16.90
2022-10-13T13:37:45.353Z,16.85
2022-10-13T13:40:16.908Z,16.84
2022-10-13T13:42:44.803Z,16.81
2022-10-13T13:45:15.072Z,16.76
2022-10-13T13:47:42.776Z,16.75
2022-10-13T13:50:17.367Z,16.73
2022-10-13T13:52:45.091Z,16.72
2022-10-13T13:55:12.843Z,16.72
2022-10-13T13:57:40.695Z,16.68
2022-10-13T14:00:09.293Z,16.60
2022-10-13T14:02:38.367Z,16.56
2022-10-13T14:05:07.519Z,16.54
2022-10-13T14:07:35.420Z,16.52
2022-10-13T14:10:03.151Z,16.48
2022-10-13T14:12:31.072Z,16.46
2022-10-13T14:14:59.098Z,16.46
2022-10-13T14:17:26.832Z,16.43
2022-10-13T14:19:56.029Z,16.42
2022-10-13T14:22:23.949Z,16.42
2022-10-13T14:24:51.830Z,16.42
2022-10-13T14:27:19.489Z,16.42
2022-10-13T14:29:47.176Z,16.41
2022-10-13T14:32:14.859Z,16.46
2022-10-13T14:34:42.551Z,16.49
2022-10-13T14:37:14.739Z,16.47
2022-10-13T14:39:42.434Z,16.47
2022-10-13T14:42:10.263Z,16.43
2022-10-13T14:44:37.974Z,16.38
2022-10-13T14:47:05.768Z,16.35
2022-10-13T14:49:33.445Z,16.31
2022-10-13T14:52:01.165Z,16.26
2022-10-13T14:54:30.194Z,16.21
2022-10-13T14:57:00.527Z,16.17
2022-10-13T14:59:28.556Z,16.14
2022-10-13T15:01:56.267Z,16.10
2022-10-13T15:04:24.058Z,16.11
2022-10-13T15:06:51.988Z,16.08
2022-10-13T15:09:22.990Z,16.07
2022-10-13T15:11:58.239Z,16.05
2022-10-13T15:14:26.247Z,16.04
2022-10-13T15:16:53.951Z,16.06
2022-10-13T15:19:21.623Z,16.08
2022-10-13T15:21:49.944Z,16.03
2022-10-13T15:24:17.652Z,16.01
2022-10-13T15:26:45.299Z,16.01
2022-10-13T15:29:14.378Z,16.00
2022-10-13T15:31:42.069Z,16.01
2022-10-13T15:34:09.924Z,16.01
2022-10-13T15:36:37.640Z,16.00
2022-10-13T15:39:05.477Z,16.01
2022-10-13T15:41:33.127Z,16.01
2022-10-13T15:44:00.828Z,16.00
2022-10-13T15:46:31.467Z,15.97
2022-10-13T15:48:59.960Z,15.95
2022-10-13T15:51:27.909Z,15.94
2022-10-13T15:53:56.172Z,15.93
2022-10-13T15:56:24.114Z,15.91
2022-10-13T15:58:51.798Z,15.91
2022-10-13T16:01:19.535Z,15.89
2022-10-13T16:03:48.712Z,15.89
2022-10-13T16:06:16.394Z,15.86
2022-10-13T16:08:44.742Z,15.84
2022-10-13T16:11:14.556Z,15.84
2022-10-13T16:13:45.880Z,15.84
2022-10-13T16:16:13.528Z,15.82
2022-10-13T16:18:41.414Z,15.79
2022-10-13T16:21:15.883Z,15.79
2022-10-13T16:23:46.566Z,15.76
2022-10-13T16:26:14.653Z,15.74
2022-10-13T16:28:42.683Z,15.73
2022-10-13T16:31:13.451Z,15.72
2022-10-13T16:33:41.959Z,15.70
2022-10-13T16:36:13.310Z,15.68
2022-10-13T16:38:41.849Z,15.65
2022-10-13T16:41:14.521Z,15.62
2022-10-13T16:43:42.991Z,15.57
2022-10-13T16:46:13.407Z,15.53
2022-10-13T16:48:42.017Z,15.48
2022-10-13T16:51:14.421Z,15.49
2022-10-13T16:53:41.941Z,15.47
2022-10-13T16:56:10.121Z,15.44
2022-10-13T16:58:37.790Z,15.44
2022-10-13T17:01:08.592Z,15.44
2022-10-13T17:03:36.582Z,15.43
2022-10-13T17:06:04.806Z,15.40
2022-10-13T17:08:34.206Z,15.38
2022-10-13T17:11:02.658Z,15.39
2022-10-13T17:13:32.171Z,15.39
2022-10-13T17:18:37.400Z,15.35
2022-10-13T17:21:08.959Z,15.34
2022-10-13T17:23:38.502Z,15.34
2022-10-13T17:26:08.183Z,15.34
2022-10-13T17:28:37.286Z,15.35
2022-10-13T17:31:07.489Z,15.36
2022-10-13T17:33:36.615Z,15.36
2022-10-13T17:36:07.319Z,15.35
2022-10-13T17:38:35.408Z,15.35
2022-10-13T17:41:07.439Z,15.35
2022-10-13T17:43:37.111Z,15.34
2022-10-13T17:46:34.423Z,15.34
2022-10-13T17:48:58.355Z,15.32
2022-10-13T17:51:26.375Z,15.32
2022-10-13T17:53:54.083Z,15.33
2022-10-13T17:56:25.000Z,15.33
2022-10-13T17:58:53.355Z,15.31
2022-10-13T18:01:23.678Z,15.30
2022-10-13T18:03:54.225Z,15.29
2022-10-13T18:06:23.104Z,15.28
2022-10-13T18:08:51.363Z,15.27
2022-10-13T18:11:21.019Z,15.25
2022-10-13T18:13:50.236Z,15.26
2022-10-13T18:16:21.387Z,15.25
2022-10-13T18:18:50.112Z,15.25
2022-10-13T18:21:19.583Z,15.25
2022-10-13T18:23:47.688Z,15.23
2022-10-13T18:26:16.922Z,15.23
2022-10-13T18:28:45.758Z,15.22
2022-10-13T18:31:17.121Z,15.23
2022-10-13T18:33:45.612Z,15.22
2022-10-13T18:36:16.893Z,15.22
2022-10-13T18:38:44.637Z,15.20
2022-10-13T18:41:12.390Z,15.18
2022-10-13T18:43:40.144Z,15.16
2022-10-13T18:46:07.856Z,15.14
2022-10-13T18:48:36.955Z,15.13
2022-10-13T18:51:06.112Z,15.13
2022-10-13T18:53:35.766Z,15.11
2022-10-13T18:56:05.010Z,15.12
2022-10-13T18:58:32.782Z,15.11
2022-10-13T19:01:01.436Z,15.12
2022-10-13T19:03:29.705Z,15.09
2022-10-13T19:06:07.038Z,15.09
2022-10-13T19:08:35.733Z,15.07
2022-10-13T19:11:11.379Z,15.08
2022-10-13T19:13:39.871Z,15.08
2022-10-13T19:16:08.256Z,15.08
2022-10-13T19:18:36.813Z,15.05
2022-10-13T19:21:06.896Z,15.06
2022-10-13T19:23:34.793Z,15.05
2022-10-13T19:26:14.919Z,15.05
2022-10-13T19:28:43.139Z,15.05
2022-10-13T19:31:11.412Z,15.04
2022-10-13T19:33:44.815Z,15.04
2022-10-13T19:36:24.171Z,15.03
2022-10-13T19:38:52.059Z,15.04
2022-10-13T19:41:19.966Z,15.02
2022-10-13T19:43:47.712Z,15.04
2022-10-13T19:46:15.966Z,15.02
2022-10-13T19:48:44.715Z,15.01
2022-10-13T19:51:14.687Z,15.01
2022-10-13T19:53:42.838Z,14.98
2022-10-13T19:56:19.439Z,14.96
2022-10-13T19:58:47.141Z,14.95
2022-10-13T20:01:15.141Z,14.94
2022-10-13T20:03:43.120Z,14.93
2022-10-13T20:06:10.917Z,14.93
2022-10-13T20:08:40.099Z,14.92
2022-10-13T20:11:08.833Z,14.92
2022-10-13T20:13:37.670Z,14.92
2022-10-13T20:16:07.260Z,14.89
2022-10-13T20:18:35.924Z,14.90
2022-10-13T20:21:05.203Z,14.87
2022-10-13T20:23:33.626Z,14.87
2022-10-13T20:26:04.832Z,14.87
2022-10-13T20:28:32.708Z,14.82
2022-10-13T20:31:02.763Z,14.83
2022-10-13T20:33:30.856Z,14.81
2022-10-13T20:36:00.666Z,14.80
2022-10-13T20:38:30.216Z,14.81
2022-10-13T20:41:06.351Z,14.81
2022-10-13T20:43:34.279Z,14.82
2022-10-13T20:46:06.228Z,14.79
2022-10-13T20:48:57.791Z,14.76
2022-10-13T20:51:24.327Z,14.78
2022-10-13T20:53:52.815Z,14.75
2022-10-13T20:56:23.535Z,14.70
2022-10-13T20:58:51.852Z,14.70
2022-10-13T21:01:22.011Z,14.71
2022-10-13T21:03:52.622Z,14.70
2022-10-13T21:06:20.770Z,14.73
2022-10-13T21:08:49.182Z,14.70
2022-10-13T21:11:20.143Z,14.69
2022-10-13T21:13:50.590Z,14.68
2022-10-13T21:16:20.092Z,14.68
2022-10-13T21:18:49.698Z,14.67
2022-10-13T21:21:19.957Z,14.66
2022-10-13T21:23:50.559Z,14.67
2022-10-13T21:26:21.571Z,14.68
2022-10-13T21:28:52.016Z,14.69
2022-10-13T21:31:22.531Z,14.69
2022-10-13T21:33:50.958Z,14.68
2022-10-13T21:36:21.414Z,14.69
2022-10-13T21:38:52.582Z,14.69
2022-10-13T21:41:20.841Z,14.68
2022-10-13T21:43:50.385Z,14.69
2022-10-13T21:46:20.195Z,14.69
2022-10-13T21:48:49.419Z,14.69
2022-10-13T21:51:19.184Z,14.67
2022-10-13T21:53:49.814Z,14.66
2022-10-13T21:56:18.397Z,14.65
2022-10-13T21:58:51.749Z,14.61
2022-10-13T22:01:20.469Z,14.57
2022-10-13T22:03:49.308Z,14.57
2022-10-13T22:06:19.711Z,14.54
2022-10-13T22:08:48.674Z,14.51
2022-10-13T22:11:20.666Z,14.51
2022-10-13T22:13:48.430Z,14.51
2022-10-13T22:16:20.482Z,14.52
2022-10-13T22:18:48.597Z,14.54
2022-10-13T22:21:20.114Z,14.50
2022-10-13T22:23:47.962Z,14.51
2022-10-13T22:26:16.687Z,14.49
2022-10-13T22:28:48.138Z,14.50
2022-10-13T22:31:17.307Z,14.50
2022-10-13T22:33:45.439Z,14.49
2022-10-13T22:36:16.376Z,14.50
2022-10-13T22:38:44.284Z,14.49
2022-10-13T22:41:14.700Z,14.48
2022-10-13T22:43:44.347Z,14.49
2022-10-13T22:46:12.581Z,14.48
2022-10-13T22:48:42.076Z,14.49
2022-10-13T22:51:11.826Z,14.50
2022-10-13T22:53:39.496Z,14.49
2022-10-13T22:56:08.844Z,14.48
2022-10-13T22:58:36.752Z,14.47
2022-10-13T23:01:08.627Z,14.47
2022-10-13T23:03:36.996Z,14.45
2022-10-13T23:06:07.944Z,14.44
2022-10-13T23:08:36.170Z,14.45
2022-10-13T23:11:03.836Z,14.47
2022-10-13T23:13:31.687Z,14.48
2022-10-13T23:16:02.363Z,14.49
2022-10-13T23:18:30.091Z,14.47
2022-10-13T23:20:57.912Z,14.48
2022-10-13T23:23:27.085Z,14.47
2022-10-13T23:25:54.774Z,14.49
2022-10-13T23:28:22.538Z,14.46
2022-10-13T23:30:50.231Z,14.44
2022-10-13T23:33:17.919Z,14.43
2022-10-13T23:35:45.636Z,14.41
2022-10-13T23:38:13.340Z,14.40
2022-10-13T23:40:42.405Z,14.41
2022-10-13T23:43:10.091Z,14.42
2022-10-13T23:45:37.768Z,14.43
2022-10-13T23:48:06.053Z,14.43
2022-10-13T23:50:33.802Z,14.45
2022-10-13T23:53:01.642Z,14.45
2022-10-13T23:55:29.432Z,14.44
2022-10-13T23:57:58.413Z,14.43
